Etusivu
METAR-TAF:

METAR-TAF

Lentoasemat :

Bagdadin kansainvälinen lentoasema

Bagdad, Irak

Leveyspiiri: 33-15-45N, Pituuspiiri: 44-14-04E, korkeus merenpinnasta: 35 m

Tämänhetkinen sää

Tämä raportti tehtiin 44 minuuttia sitten, kello 11.00 UTC
Tuuli 9 kn lännestä, vaihdellen lännen/lounaan ja pohjoisen/luoteen välillä
Lämpötila 41°C
Kosteus 19%
Ilmanpaine 997 hPa
Näkyvyys 10 km tai enemmän
Muutamia pilviä 3000 ft:n korkeudessa

METAR: ORBI 231100Z 28009KT 250V330 9999 FEW030 41/13 Q0997 NOSIG

Aika: 14:44 (11:44 UTC)

Sääennuste

Tämä raportti tehtiin 1 tunti ja 44 minuuttia sitten, kello 10.00 UTC
Ennuste voimassa 23. päivästä klo 12 UTC - 24. päivään klo 12 UTC
Tuuli 8 kn lännestä/luoteesta
Näkyvyys 10 km tai enemmän
ei pilviä alle 1500 m:ssä eikä cumulonimbus-pilviä

TAF: ORBI 231000Z 2312/2412 30008KT CAVOK

Säähavainnot ja -ennusteet yli 4000 lentoasemalta (METAR- ja TAF-raportit).

Käytössä olevat sääasemat on merkitty karttaan keltaisilla ja punaisilla pisteillä.

Aseta hiiri pisteen päälle nähdäksesi sääaseman nimen.

Klikkaa sitten nähdäksesi säähavainnot ja -ennusteet.

Kartan vaihtaminen: klikkaa mustalla rastilla varustettuja vihreitä pisteitä, niin voit zoomata sisään; viivalla varustettua vihreää pistettä, niin voit zoomata ulos tai vihreitä nuolia, niin pääset viereisille kartoille.


METAR-TAF: